sensor_id;sensor_type;location;lat;lon;timestamp;P1;durP1;ratioP1;P2;durP2;ratioP2
1026;SDS011;502;48.746;9.214;2022-09-11T00:01:04;4.77;;;1.90;;
1026;SDS011;502;48.746;9.214;2022-09-11T00:03:32;1.83;;;1.60;;
1026;SDS011;502;48.746;9.214;2022-09-11T00:06:00;2.33;;;1.70;;
1026;SDS011;502;48.746;9.214;2022-09-11T00:08:27;2.53;;;1.50;;
1026;SDS011;502;48.746;9.214;2022-09-11T00:11:00;2.43;;;1.40;;
1026;SDS011;502;48.746;9.214;2022-09-11T00:13:28;2.27;;;1.60;;
1026;SDS011;502;48.746;9.214;2022-09-11T00:15:56;2.07;;;1.33;;
1026;SDS011;502;48.746;9.214;2022-09-11T00:18:23;1.60;;;1.40;;
1026;SDS011;502;48.746;9.214;2022-09-11T00:20:54;4.17;;;1.83;;
1026;SDS011;502;48.746;9.214;2022-09-11T00:23:22;2.63;;;1.40;;
1026;SDS011;502;48.746;9.214;2022-09-11T00:25:50;2.53;;;1.80;;
1026;SDS011;502;48.746;9.214;2022-09-11T00:28:18;2.57;;;1.33;;
1026;SDS011;502;48.746;9.214;2022-09-11T00:30:46;2.20;;;1.30;;
1026;SDS011;502;48.746;9.214;2022-09-11T00:33:15;2.10;;;1.40;;
1026;SDS011;502;48.746;9.214;2022-09-11T00:35:41;1.93;;;1.57;;
1026;SDS011;502;48.746;9.214;2022-09-11T00:38:09;2.00;;;1.53;;
1026;SDS011;502;48.746;9.214;2022-09-11T00:40:42;1.80;;;1.43;;
1026;SDS011;502;48.746;9.214;2022-09-11T00:43:11;2.13;;;1.40;;
1026;SDS011;502;48.746;9.214;2022-09-11T00:45:38;2.20;;;1.30;;
1026;SDS011;502;48.746;9.214;2022-09-11T00:48:06;2.10;;;1.90;;
1026;SDS011;502;48.746;9.214;2022-09-11T00:50:35;1.60;;;1.40;;
1026;SDS011;502;48.746;9.214;2022-09-11T00:53:02;2.03;;;1.83;;
1026;SDS011;502;48.746;9.214;2022-09-11T00:55:32;2.50;;;1.47;;
1026;SDS011;502;48.746;9.214;2022-09-11T00:58:02;5.73;;;1.77;;
1026;SDS011;502;48.746;9.214;2022-09-11T01:00:30;1.70;;;1.53;;
1026;SDS011;502;48.746;9.214;2022-09-11T01:02:57;2.87;;;1.40;;
1026;SDS011;502;48.746;9.214;2022-09-11T01:05:25;1.70;;;1.40;;
1026;SDS011;502;48.746;9.214;2022-09-11T01:07:55;1.80;;;1.60;;
1026;SDS011;502;48.746;9.214;2022-09-11T01:10:23;2.00;;;1.60;;
1026;SDS011;502;48.746;9.214;2022-09-11T01:12:56;1.77;;;1.40;;
1026;SDS011;502;48.746;9.214;2022-09-11T01:15:28;2.60;;;1.57;;
1026;SDS011;502;48.746;9.214;2022-09-11T01:18:00;2.67;;;1.70;;
1026;SDS011;502;48.746;9.214;2022-09-11T01:20:35;2.80;;;1.40;;
1026;SDS011;502;48.746;9.214;2022-09-11T01:26:08;2.77;;;1.33;;
1026;SDS011;502;48.746;9.214;2022-09-11T01:28:46;3.10;;;1.80;;
1026;SDS011;502;48.746;9.214;2022-09-11T01:31:18;3.27;;;2.10;;
1026;SDS011;502;48.746;9.214;2022-09-11T01:33:49;2.57;;;1.70;;
1026;SDS011;502;48.746;9.214;2022-09-11T01:36:25;1.80;;;1.60;;
1026;SDS011;502;48.746;9.214;2022-09-11T01:38:54;2.20;;;1.73;;
1026;SDS011;502;48.746;9.214;2022-09-11T01:41:23;3.20;;;2.00;;
1026;SDS011;502;48.746;9.214;2022-09-11T01:43:56;1.90;;;1.70;;
1026;SDS011;502;48.746;9.214;2022-09-11T01:46:26;2.67;;;1.63;;
1026;SDS011;502;48.746;9.214;2022-09-11T01:48:56;2.00;;;1.70;;
1026;SDS011;502;48.746;9.214;2022-09-11T01:51:27;2.33;;;1.57;;
1026;SDS011;502;48.746;9.214;2022-09-11T01:53:56;2.37;;;1.60;;
1026;SDS011;502;48.746;9.214;2022-09-11T01:56:26;1.83;;;1.63;;
1026;SDS011;502;48.746;9.214;2022-09-11T01:58:58;3.47;;;1.73;;
1026;SDS011;502;48.746;9.214;2022-09-11T02:01:29;2.33;;;1.73;;
1026;SDS011;502;48.746;9.214;2022-09-11T02:03:58;1.87;;;1.70;;
1026;SDS011;502;48.746;9.214;2022-09-11T02:06:35;1.93;;;1.70;;
1026;SDS011;502;48.746;9.214;2022-09-11T02:09:04;3.20;;;1.80;;
1026;SDS011;502;48.746;9.214;2022-09-11T02:11:32;2.00;;;1.80;;
1026;SDS011;502;48.746;9.214;2022-09-11T02:14:05;2.40;;;2.20;;
1026;SDS011;502;48.746;9.214;2022-09-11T02:16:38;2.10;;;1.80;;
1026;SDS011;502;48.746;9.214;2022-09-11T02:19:10;2.20;;;1.77;;
1026;SDS011;502;48.746;9.214;2022-09-11T02:21:37;3.97;;;2.17;;
1026;SDS011;502;48.746;9.214;2022-09-11T02:24:06;2.80;;;2.13;;
1026;SDS011;502;48.746;9.214;2022-09-11T02:26:36;3.80;;;2.00;;
1026;SDS011;502;48.746;9.214;2022-09-11T02:29:06;2.53;;;2.00;;
1026;SDS011;502;48.746;9.214;2022-09-11T02:31:34;3.10;;;1.87;;
1026;SDS011;502;48.746;9.214;2022-09-11T02:34:01;4.93;;;1.90;;
1026;SDS011;502;48.746;9.214;2022-09-11T02:36:32;2.50;;;1.67;;
1026;SDS011;502;48.746;9.214;2022-09-11T02:39:10;2.40;;;2.20;;
1026;SDS011;502;48.746;9.214;2022-09-11T02:41:50;2.43;;;1.70;;
1026;SDS011;502;48.746;9.214;2022-09-11T02:44:26;2.10;;;1.80;;
1026;SDS011;502;48.746;9.214;2022-09-11T02:47:05;2.70;;;2.47;;
1026;SDS011;502;48.746;9.214;2022-09-11T02:49:38;3.40;;;2.20;;
1026;SDS011;502;48.746;9.214;2022-09-11T02:52:13;4.00;;;2.20;;
1026;SDS011;502;48.746;9.214;2022-09-11T02:54:49;2.60;;;2.03;;
1026;SDS011;502;48.746;9.214;2022-09-11T02:57:20;2.80;;;2.50;;
1026;SDS011;502;48.746;9.214;2022-09-11T02:59:53;2.70;;;2.30;;
1026;SDS011;502;48.746;9.214;2022-09-11T03:02:22;3.57;;;2.27;;
1026;SDS011;502;48.746;9.214;2022-09-11T03:04:49;2.40;;;2.20;;
1026;SDS011;502;48.746;9.214;2022-09-11T03:07:16;2.40;;;2.20;;
1026;SDS011;502;48.746;9.214;2022-09-11T03:09:43;2.73;;;2.43;;
1026;SDS011;502;48.746;9.214;2022-09-11T03:12:16;2.47;;;2.23;;
1026;SDS011;502;48.746;9.214;2022-09-11T03:14:47;2.40;;;2.20;;
1026;SDS011;502;48.746;9.214;2022-09-11T03:17:15;2.83;;;2.53;;
1026;SDS011;502;48.746;9.214;2022-09-11T03:19:42;2.50;;;2.17;;
1026;SDS011;502;48.746;9.214;2022-09-11T03:22:09;3.60;;;2.60;;
1026;SDS011;502;48.746;9.214;2022-09-11T03:24:35;2.80;;;2.60;;
1026;SDS011;502;48.746;9.214;2022-09-11T03:27:04;3.80;;;2.90;;
1026;SDS011;502;48.746;9.214;2022-09-11T03:29:32;2.80;;;2.40;;
1026;SDS011;502;48.746;9.214;2022-09-11T03:32:00;3.03;;;2.73;;
1026;SDS011;502;48.746;9.214;2022-09-11T03:34:28;4.83;;;2.70;;
1026;SDS011;502;48.746;9.214;2022-09-11T03:36:56;3.23;;;2.57;;
1026;SDS011;502;48.746;9.214;2022-09-11T03:39:23;4.63;;;2.27;;
1026;SDS011;502;48.746;9.214;2022-09-11T03:41:50;3.90;;;2.40;;
1026;SDS011;502;48.746;9.214;2022-09-11T03:44:18;2.40;;;2.20;;
1026;SDS011;502;48.746;9.214;2022-09-11T03:46:45;2.50;;;2.30;;
1026;SDS011;502;48.746;9.214;2022-09-11T03:49:12;3.03;;;2.70;;
1026;SDS011;502;48.746;9.214;2022-09-11T03:51:41;3.27;;;2.97;;
1026;SDS011;502;48.746;9.214;2022-09-11T03:54:08;2.70;;;2.23;;
1026;SDS011;502;48.746;9.214;2022-09-11T03:56:35;3.43;;;2.77;;
1026;SDS011;502;48.746;9.214;2022-09-11T03:59:02;2.90;;;2.60;;
1026;SDS011;502;48.746;9.214;2022-09-11T04:01:29;3.47;;;3.10;;
1026;SDS011;502;48.746;9.214;2022-09-11T04:03:56;3.73;;;2.80;;
1026;SDS011;502;48.746;9.214;2022-09-11T04:06:28;3.93;;;3.20;;
1026;SDS011;502;48.746;9.214;2022-09-11T04:08:58;4.20;;;3.13;;
1026;SDS011;502;48.746;9.214;2022-09-11T04:11:25;3.80;;;3.37;;
1026;SDS011;502;48.746;9.214;2022-09-11T04:13:54;4.00;;;3.60;;
1026;SDS011;502;48.746;9.214;2022-09-11T04:16:23;6.00;;;3.17;;
1026;SDS011;502;48.746;9.214;2022-09-11T04:18:52;3.37;;;2.97;;
1026;SDS011;502;48.746;9.214;2022-09-11T04:21:21;4.43;;;3.90;;
1026;SDS011;502;48.746;9.214;2022-09-11T04:23:50;4.97;;;3.80;;
1026;SDS011;502;48.746;9.214;2022-09-11T04:26:19;4.30;;;3.83;;
1026;SDS011;502;48.746;9.214;2022-09-11T04:28:51;4.03;;;3.63;;
1026;SDS011;502;48.746;9.214;2022-09-11T04:31:18;5.30;;;4.00;;
1026;SDS011;502;48.746;9.214;2022-09-11T04:33:46;3.90;;;3.60;;
1026;SDS011;502;48.746;9.214;2022-09-11T04:36:14;4.50;;;4.10;;
1026;SDS011;502;48.746;9.214;2022-09-11T04:38:42;5.40;;;4.87;;
1026;SDS011;502;48.746;9.214;2022-09-11T04:41:11;4.60;;;4.03;;
1026;SDS011;502;48.746;9.214;2022-09-11T04:43:40;5.20;;;4.70;;
1026;SDS011;502;48.746;9.214;2022-09-11T04:46:10;5.60;;;5.10;;
1026;SDS011;502;48.746;9.214;2022-09-11T04:48:50;5.30;;;4.80;;
1026;SDS011;502;48.746;9.214;2022-09-11T04:51:23;5.93;;;4.63;;
1026;SDS011;502;48.746;9.214;2022-09-11T04:53:52;6.03;;;5.37;;
1026;SDS011;502;48.746;9.214;2022-09-11T04:56:22;6.33;;;5.73;;
1026;SDS011;502;48.746;9.214;2022-09-11T04:58:54;6.00;;;5.40;;
1026;SDS011;502;48.746;9.214;2022-09-11T05:01:24;7.70;;;6.43;;
1026;SDS011;502;48.746;9.214;2022-09-11T05:03:55;6.20;;;5.57;;
1026;SDS011;502;48.746;9.214;2022-09-11T05:06:21;6.50;;;5.80;;
1026;SDS011;502;48.746;9.214;2022-09-11T05:08:49;6.53;;;5.93;;
1026;SDS011;502;48.746;9.214;2022-09-11T05:11:17;6.60;;;5.17;;
1026;SDS011;502;48.746;9.214;2022-09-11T05:13:45;6.53;;;5.93;;
1026;SDS011;502;48.746;9.214;2022-09-11T05:16:14;5.97;;;5.20;;
1026;SDS011;502;48.746;9.214;2022-09-11T05:18:42;6.33;;;5.73;;
1026;SDS011;502;48.746;9.214;2022-09-11T05:21:14;5.70;;;5.20;;
1026;SDS011;502;48.746;9.214;2022-09-11T05:23:45;6.57;;;5.97;;
1026;SDS011;502;48.746;9.214;2022-09-11T05:26:13;5.67;;;5.17;;
1026;SDS011;502;48.746;9.214;2022-09-11T05:28:41;7.50;;;6.10;;
1026;SDS011;502;48.746;9.214;2022-09-11T05:31:09;6.37;;;5.67;;
1026;SDS011;502;48.746;9.214;2022-09-11T05:33:38;6.60;;;6.00;;
1026;SDS011;502;48.746;9.214;2022-09-11T05:36:05;7.97;;;6.43;;
1026;SDS011;502;48.746;9.214;2022-09-11T05:38:33;6.60;;;5.90;;
1026;SDS011;502;48.746;9.214;2022-09-11T05:41:00;6.87;;;6.27;;
1026;SDS011;502;48.746;9.214;2022-09-11T05:43:29;8.83;;;6.50;;
1026;SDS011;502;48.746;9.214;2022-09-11T05:45:56;6.03;;;5.50;;
1026;SDS011;502;48.746;9.214;2022-09-11T05:48:26;6.20;;;5.70;;
1026;SDS011;502;48.746;9.214;2022-09-11T05:50:56;7.20;;;5.10;;
1026;SDS011;502;48.746;9.214;2022-09-11T05:53:26;7.40;;;5.70;;
1026;SDS011;502;48.746;9.214;2022-09-11T05:55:55;6.67;;;5.63;;
1026;SDS011;502;48.746;9.214;2022-09-11T05:58:22;7.53;;;5.57;;
1026;SDS011;502;48.746;9.214;2022-09-11T06:00:49;6.57;;;5.97;;
1026;SDS011;502;48.746;9.214;2022-09-11T06:03:16;8.10;;;6.40;;
1026;SDS011;502;48.746;9.214;2022-09-11T06:05:44;9.67;;;6.53;;
1026;SDS011;502;48.746;9.214;2022-09-11T06:08:12;7.13;;;6.50;;
1026;SDS011;502;48.746;9.214;2022-09-11T06:10:43;6.90;;;6.30;;
1026;SDS011;502;48.746;9.214;2022-09-11T06:13:11;7.20;;;6.57;;
1026;SDS011;502;48.746;9.214;2022-09-11T06:15:42;7.43;;;6.73;;
1026;SDS011;502;48.746;9.214;2022-09-11T06:18:09;7.30;;;6.60;;
1026;SDS011;502;48.746;9.214;2022-09-11T06:20:36;9.50;;;7.10;;
1026;SDS011;502;48.746;9.214;2022-09-11T06:23:05;7.57;;;6.80;;
1026;SDS011;502;48.746;9.214;2022-09-11T06:25:33;8.00;;;7.20;;
1026;SDS011;502;48.746;9.214;2022-09-11T06:28:01;7.87;;;7.10;;
1026;SDS011;502;48.746;9.214;2022-09-11T06:30:29;6.60;;;6.00;;
1026;SDS011;502;48.746;9.214;2022-09-11T06:32:55;7.17;;;6.47;;
1026;SDS011;502;48.746;9.214;2022-09-11T06:35:23;7.10;;;6.40;;
1026;SDS011;502;48.746;9.214;2022-09-11T06:37:49;8.10;;;7.30;;
1026;SDS011;502;48.746;9.214;2022-09-11T06:40:16;7.47;;;6.80;;
1026;SDS011;502;48.746;9.214;2022-09-11T06:42:44;7.57;;;6.90;;
1026;SDS011;502;48.746;9.214;2022-09-11T06:45:11;7.90;;;6.90;;
1026;SDS011;502;48.746;9.214;2022-09-11T06:47:39;9.43;;;8.50;;
1026;SDS011;502;48.746;9.214;2022-09-11T06:50:06;7.93;;;7.00;;
1026;SDS011;502;48.746;9.214;2022-09-11T06:52:54;8.10;;;7.13;;
1026;SDS011;502;48.746;9.214;2022-09-11T06:55:25;9.83;;;8.83;;
1026;SDS011;502;48.746;9.214;2022-09-11T06:57:59;8.40;;;7.07;;
1026;SDS011;502;48.746;9.214;2022-09-11T07:00:28;8.33;;;7.53;;
1026;SDS011;502;48.746;9.214;2022-09-11T07:02:56;8.93;;;7.07;;
1026;SDS011;502;48.746;9.214;2022-09-11T07:05:23;8.20;;;7.40;;
1026;SDS011;502;48.746;9.214;2022-09-11T07:07:52;7.70;;;7.00;;
1026;SDS011;502;48.746;9.214;2022-09-11T07:10:19;9.97;;;7.50;;
1026;SDS011;502;48.746;9.214;2022-09-11T07:12:51;7.93;;;7.13;;
1026;SDS011;502;48.746;9.214;2022-09-11T07:15:21;7.80;;;7.10;;
1026;SDS011;502;48.746;9.214;2022-09-11T07:17:47;7.97;;;7.20;;
1026;SDS011;502;48.746;9.214;2022-09-11T07:20:14;10.20;;;7.37;;
1026;SDS011;502;48.746;9.214;2022-09-11T07:22:42;8.93;;;7.50;;
1026;SDS011;502;48.746;9.214;2022-09-11T07:25:10;8.20;;;7.40;;
1026;SDS011;502;48.746;9.214;2022-09-11T07:27:39;9.00;;;8.00;;
1026;SDS011;502;48.746;9.214;2022-09-11T07:30:09;8.50;;;7.70;;
1026;SDS011;502;48.746;9.214;2022-09-11T07:32:39;8.03;;;7.33;;
1026;SDS011;502;48.746;9.214;2022-09-11T07:35:06;8.50;;;7.70;;
1026;SDS011;502;48.746;9.214;2022-09-11T07:37:33;8.40;;;7.47;;
1026;SDS011;502;48.746;9.214;2022-09-11T07:40:00;8.60;;;6.90;;
1026;SDS011;502;48.746;9.214;2022-09-11T07:42:28;8.00;;;7.30;;
1026;SDS011;502;48.746;9.214;2022-09-11T07:44:56;8.70;;;7.77;;
1026;SDS011;502;48.746;9.214;2022-09-11T07:47:24;8.37;;;7.57;;
1026;SDS011;502;48.746;9.214;2022-09-11T07:49:52;7.50;;;6.80;;
1026;SDS011;502;48.746;9.214;2022-09-11T07:52:19;9.23;;;8.33;;
1026;SDS011;502;48.746;9.214;2022-09-11T07:54:52;9.20;;;8.30;;
1026;SDS011;502;48.746;9.214;2022-09-11T07:57:23;8.53;;;7.63;;
1026;SDS011;502;48.746;9.214;2022-09-11T07:59:50;7.17;;;6.47;;
1026;SDS011;502;48.746;9.214;2022-09-11T08:02:18;7.87;;;7.17;;
1026;SDS011;502;48.746;9.214;2022-09-11T08:04:45;8.20;;;7.20;;
1026;SDS011;502;48.746;9.214;2022-09-11T08:07:13;8.60;;;7.80;;
1026;SDS011;502;48.746;9.214;2022-09-11T08:09:40;7.60;;;6.90;;
1026;SDS011;502;48.746;9.214;2022-09-11T08:12:08;9.40;;;8.50;;
1026;SDS011;502;48.746;9.214;2022-09-11T08:14:37;8.10;;;7.00;;
1026;SDS011;502;48.746;9.214;2022-09-11T08:17:15;7.87;;;7.17;;
1026;SDS011;502;48.746;9.214;2022-09-11T08:19:42;8.23;;;7.30;;
1026;SDS011;502;48.746;9.214;2022-09-11T08:22:10;8.30;;;7.50;;
1026;SDS011;502;48.746;9.214;2022-09-11T08:24:42;9.30;;;7.90;;
1026;SDS011;502;48.746;9.214;2022-09-11T08:27:12;8.00;;;7.30;;
1026;SDS011;502;48.746;9.214;2022-09-11T08:29:40;7.80;;;7.07;;
1026;SDS011;502;48.746;9.214;2022-09-11T08:32:08;8.13;;;7.33;;
1026;SDS011;502;48.746;9.214;2022-09-11T08:34:35;8.00;;;7.30;;
1026;SDS011;502;48.746;9.214;2022-09-11T08:37:02;9.50;;;8.50;;
1026;SDS011;502;48.746;9.214;2022-09-11T08:39:32;9.10;;;7.87;;
1026;SDS011;502;48.746;9.214;2022-09-11T08:42:03;11.30;;;7.70;;
1026;SDS011;502;48.746;9.214;2022-09-11T08:44:33;8.47;;;7.40;;
1026;SDS011;502;48.746;9.214;2022-09-11T08:47:17;8.80;;;7.90;;
1026;SDS011;502;48.746;9.214;2022-09-11T08:49:50;8.20;;;7.40;;
1026;SDS011;502;48.746;9.214;2022-09-11T08:52:21;7.97;;;7.20;;
1026;SDS011;502;48.746;9.214;2022-09-11T08:54:48;7.53;;;6.83;;
1026;SDS011;502;48.746;9.214;2022-09-11T08:57:21;8.53;;;7.73;;
1026;SDS011;502;48.746;9.214;2022-09-11T08:59:59;8.20;;;7.40;;
1026;SDS011;502;48.746;9.214;2022-09-11T09:02:40;7.33;;;6.63;;
1026;SDS011;502;48.746;9.214;2022-09-11T09:05:18;7.60;;;6.90;;
1026;SDS011;502;48.746;9.214;2022-09-11T09:07:58;7.90;;;7.20;;
1026;SDS011;502;48.746;9.214;2022-09-11T09:10:33;7.30;;;6.60;;
1026;SDS011;502;48.746;9.214;2022-09-11T09:13:11;7.90;;;7.13;;
1026;SDS011;502;48.746;9.214;2022-09-11T09:15:46;7.60;;;6.83;;
1026;SDS011;502;48.746;9.214;2022-09-11T09:18:21;7.07;;;6.33;;
1026;SDS011;502;48.746;9.214;2022-09-11T09:20:55;6.80;;;6.10;;
1026;SDS011;502;48.746;9.214;2022-09-11T09:23:27;7.00;;;6.40;;
1026;SDS011;502;48.746;9.214;2022-09-11T09:25:56;8.03;;;6.13;;
1026;SDS011;502;48.746;9.214;2022-09-11T09:28:26;7.40;;;6.70;;
1026;SDS011;502;48.746;9.214;2022-09-11T09:30:57;7.00;;;6.40;;
1026;SDS011;502;48.746;9.214;2022-09-11T09:33:31;7.50;;;6.80;;
1026;SDS011;502;48.746;9.214;2022-09-11T09:36:09;6.77;;;6.17;;
1026;SDS011;502;48.746;9.214;2022-09-11T09:38:41;6.93;;;6.27;;
1026;SDS011;502;48.746;9.214;2022-09-11T09:41:24;6.37;;;5.77;;
1026;SDS011;502;48.746;9.214;2022-09-11T09:44:00;6.03;;;5.47;;
1026;SDS011;502;48.746;9.214;2022-09-11T09:46:31;5.97;;;5.47;;
1026;SDS011;502;48.746;9.214;2022-09-11T09:49:06;5.60;;;5.07;;
1026;SDS011;502;48.746;9.214;2022-09-11T09:51:33;5.77;;;5.27;;
1026;SDS011;502;48.746;9.214;2022-09-11T09:54:03;5.50;;;5.00;;
1026;SDS011;502;48.746;9.214;2022-09-11T09:56:33;6.17;;;5.67;;
1026;SDS011;502;48.746;9.214;2022-09-11T09:59:11;6.50;;;5.90;;
1026;SDS011;502;48.746;9.214;2022-09-11T10:01:44;6.50;;;5.90;;
1026;SDS011;502;48.746;9.214;2022-09-11T10:04:13;7.27;;;6.67;;
1026;SDS011;502;48.746;9.214;2022-09-11T10:06:42;6.80;;;6.13;;
1026;SDS011;502;48.746;9.214;2022-09-11T10:09:23;6.87;;;6.27;;
1026;SDS011;502;48.746;9.214;2022-09-11T10:11:54;7.53;;;6.80;;
1026;SDS011;502;48.746;9.214;2022-09-11T10:14:29;7.17;;;6.57;;
1026;SDS011;502;48.746;9.214;2022-09-11T10:17:00;8.40;;;6.53;;
1026;SDS011;502;48.746;9.214;2022-09-11T10:19:37;6.50;;;5.90;;
1026;SDS011;502;48.746;9.214;2022-09-11T10:22:28;6.67;;;5.80;;
1026;SDS011;502;48.746;9.214;2022-09-11T10:25:03;7.10;;;6.50;;
1026;SDS011;502;48.746;9.214;2022-09-11T10:27:34;6.73;;;6.13;;
1026;SDS011;502;48.746;9.214;2022-09-11T10:30:12;6.10;;;5.50;;
1026;SDS011;502;48.746;9.214;2022-09-11T10:32:49;6.57;;;5.97;;
1026;SDS011;502;48.746;9.214;2022-09-11T10:35:16;8.70;;;6.37;;
1026;SDS011;502;48.746;9.214;2022-09-11T10:37:46;7.37;;;6.67;;
1026;SDS011;502;48.746;9.214;2022-09-11T10:40:52;7.43;;;6.73;;
1026;SDS011;502;48.746;9.214;2022-09-11T10:43:22;7.10;;;6.47;;
1026;SDS011;502;48.746;9.214;2022-09-11T10:46:02;6.70;;;6.10;;
1026;SDS011;502;48.746;9.214;2022-09-11T10:48:30;7.57;;;6.87;;
1026;SDS011;502;48.746;9.214;2022-09-11T10:51:05;7.80;;;7.00;;
1026;SDS011;502;48.746;9.214;2022-09-11T10:53:37;7.70;;;7.00;;
1026;SDS011;502;48.746;9.214;2022-09-11T10:56:15;7.67;;;6.70;;
1026;SDS011;502;48.746;9.214;2022-09-11T10:58:42;7.93;;;7.17;;
1026;SDS011;502;48.746;9.214;2022-09-11T11:01:13;8.80;;;6.70;;
1026;SDS011;502;48.746;9.214;2022-09-11T11:03:40;8.10;;;7.30;;
1026;SDS011;502;48.746;9.214;2022-09-11T11:06:10;8.93;;;7.67;;
1026;SDS011;502;48.746;9.214;2022-09-11T11:08:50;8.97;;;8.07;;
1026;SDS011;502;48.746;9.214;2022-09-11T11:11:37;8.27;;;7.43;;
1026;SDS011;502;48.746;9.214;2022-09-11T11:14:23;9.30;;;7.10;;
1026;SDS011;502;48.746;9.214;2022-09-11T11:17:02;7.40;;;6.70;;
1026;SDS011;502;48.746;9.214;2022-09-11T11:19:41;8.07;;;6.63;;
1026;SDS011;502;48.746;9.214;2022-09-11T11:22:23;6.20;;;5.60;;
1026;SDS011;502;48.746;9.214;2022-09-11T11:24:58;6.83;;;6.23;;
1026;SDS011;502;48.746;9.214;2022-09-11T11:27:35;8.13;;;7.30;;
1026;SDS011;502;48.746;9.214;2022-09-11T11:30:10;7.00;;;6.40;;
1026;SDS011;502;48.746;9.214;2022-09-11T11:32:50;7.67;;;6.77;;
1026;SDS011;502;48.746;9.214;2022-09-11T11:35:27;7.60;;;6.80;;
1026;SDS011;502;48.746;9.214;2022-09-11T11:37:58;7.80;;;7.10;;
1026;SDS011;502;48.746;9.214;2022-09-11T11:40:29;7.27;;;6.57;;
1026;SDS011;502;48.746;9.214;2022-09-11T11:42:59;7.73;;;7.03;;
1026;SDS011;502;48.746;9.214;2022-09-11T11:45:30;6.60;;;6.00;;
1026;SDS011;502;48.746;9.214;2022-09-11T11:48:05;7.43;;;6.83;;
1026;SDS011;502;48.746;9.214;2022-09-11T11:50:35;6.70;;;6.10;;
1026;SDS011;502;48.746;9.214;2022-09-11T11:53:04;7.43;;;6.40;;
1026;SDS011;502;48.746;9.214;2022-09-11T11:55:37;8.27;;;7.57;;
1026;SDS011;502;48.746;9.214;2022-09-11T11:58:11;7.13;;;6.30;;
1026;SDS011;502;48.746;9.214;2022-09-11T12:00:42;5.87;;;5.37;;
1026;SDS011;502;48.746;9.214;2022-09-11T12:03:14;6.33;;;5.83;;
1026;SDS011;502;48.746;9.214;2022-09-11T12:05:44;5.47;;;5.00;;
1026;SDS011;502;48.746;9.214;2022-09-11T12:08:11;6.60;;;6.00;;
1026;SDS011;502;48.746;9.214;2022-09-11T12:10:38;6.03;;;5.53;;
1026;SDS011;502;48.746;9.214;2022-09-11T12:13:10;6.13;;;5.40;;
1026;SDS011;502;48.746;9.214;2022-09-11T12:15:39;6.40;;;5.73;;
1026;SDS011;502;48.746;9.214;2022-09-11T12:18:24;7.07;;;5.83;;
1026;SDS011;502;48.746;9.214;2022-09-11T12:20:51;6.23;;;5.63;;
1026;SDS011;502;48.746;9.214;2022-09-11T12:24:16;6.07;;;5.53;;
1026;SDS011;502;48.746;9.214;2022-09-11T12:26:45;6.20;;;5.70;;
1026;SDS011;502;48.746;9.214;2022-09-11T12:35:22;5.87;;;5.30;;
1026;SDS011;502;48.746;9.214;2022-09-11T12:37:55;5.30;;;4.70;;
1026;SDS011;502;48.746;9.214;2022-09-11T12:40:33;6.73;;;5.77;;
1026;SDS011;502;48.746;9.214;2022-09-11T12:45:52;5.53;;;5.03;;
1026;SDS011;502;48.746;9.214;2022-09-11T12:48:21;5.40;;;4.90;;
1026;SDS011;502;48.746;9.214;2022-09-11T12:50:52;5.77;;;5.27;;
1026;SDS011;502;48.746;9.214;2022-09-11T12:53:21;6.20;;;5.57;;
1026;SDS011;502;48.746;9.214;2022-09-11T12:55:51;6.37;;;5.63;;
1026;SDS011;502;48.746;9.214;2022-09-11T12:58:24;8.90;;;5.67;;
1026;SDS011;502;48.746;9.214;2022-09-11T13:01:05;6.80;;;6.20;;
1026;SDS011;502;48.746;9.214;2022-09-11T13:03:44;7.37;;;6.67;;
1026;SDS011;502;48.746;9.214;2022-09-11T13:06:15;6.63;;;6.03;;
1026;SDS011;502;48.746;9.214;2022-09-11T13:08:44;7.90;;;6.47;;
1026;SDS011;502;48.746;9.214;2022-09-11T13:14:05;7.57;;;6.90;;
1026;SDS011;502;48.746;9.214;2022-09-11T13:17:03;7.50;;;6.43;;
1026;SDS011;502;48.746;9.214;2022-09-11T13:19:39;7.50;;;6.80;;
1026;SDS011;502;48.746;9.214;2022-09-11T13:22:19;8.20;;;6.73;;
1026;SDS011;502;48.746;9.214;2022-09-11T13:24:47;7.20;;;6.43;;
1026;SDS011;502;48.746;9.214;2022-09-11T13:27:14;7.23;;;6.53;;
1026;SDS011;502;48.746;9.214;2022-09-11T13:29:44;7.97;;;6.87;;
1026;SDS011;502;48.746;9.214;2022-09-11T13:32:13;9.50;;;7.13;;
1026;SDS011;502;48.746;9.214;2022-09-11T13:34:41;7.50;;;6.80;;
1026;SDS011;502;48.746;9.214;2022-09-11T13:37:09;7.60;;;6.90;;
1026;SDS011;502;48.746;9.214;2022-09-11T13:39:40;7.17;;;6.47;;
1026;SDS011;502;48.746;9.214;2022-09-11T13:42:09;6.93;;;6.33;;
1026;SDS011;502;48.746;9.214;2022-09-11T13:44:40;6.83;;;6.13;;
1026;SDS011;502;48.746;9.214;2022-09-11T13:47:20;6.70;;;6.03;;
1026;SDS011;502;48.746;9.214;2022-09-11T13:49:48;7.37;;;6.63;;
1026;SDS011;502;48.746;9.214;2022-09-11T13:52:17;10.63;;;7.43;;
1026;SDS011;502;48.746;9.214;2022-09-11T13:54:46;7.43;;;6.83;;
1026;SDS011;502;48.746;9.214;2022-09-11T13:57:15;7.00;;;6.40;;
1026;SDS011;502;48.746;9.214;2022-09-11T13:59:43;8.40;;;7.60;;
1026;SDS011;502;48.746;9.214;2022-09-11T14:02:21;8.03;;;7.23;;
1026;SDS011;502;48.746;9.214;2022-09-11T14:04:53;8.30;;;7.50;;
1026;SDS011;502;48.746;9.214;2022-09-11T14:07:26;8.90;;;8.00;;
1026;SDS011;502;48.746;9.214;2022-09-11T14:09:56;7.50;;;6.67;;
1026;SDS011;502;48.746;9.214;2022-09-11T14:12:24;7.67;;;6.53;;
1026;SDS011;502;48.746;9.214;2022-09-11T14:14:51;7.43;;;6.73;;
1026;SDS011;502;48.746;9.214;2022-09-11T14:17:19;7.47;;;6.87;;
1026;SDS011;502;48.746;9.214;2022-09-11T14:19:47;7.13;;;6.43;;
1026;SDS011;502;48.746;9.214;2022-09-11T14:22:21;7.80;;;7.00;;
1026;SDS011;502;48.746;9.214;2022-09-11T14:24:55;8.23;;;7.53;;
1026;SDS011;502;48.746;9.214;2022-09-11T14:27:33;8.43;;;7.63;;
1026;SDS011;502;48.746;9.214;2022-09-11T14:33:04;8.03;;;7.30;;
1026;SDS011;502;48.746;9.214;2022-09-11T14:38:09;8.07;;;7.27;;
1026;SDS011;502;48.746;9.214;2022-09-11T14:40:46;6.80;;;6.20;;
1026;SDS011;502;48.746;9.214;2022-09-11T14:43:16;6.13;;;5.53;;
1026;SDS011;502;48.746;9.214;2022-09-11T14:45:45;7.33;;;6.63;;
1026;SDS011;502;48.746;9.214;2022-09-11T14:48:15;6.50;;;5.90;;
1026;SDS011;502;48.746;9.214;2022-09-11T14:50:43;5.53;;;5.03;;
1026;SDS011;502;48.746;9.214;2022-09-11T14:53:11;5.40;;;5.00;;
1026;SDS011;502;48.746;9.214;2022-09-11T14:55:44;5.83;;;5.23;;
1026;SDS011;502;48.746;9.214;2022-09-11T14:58:11;6.73;;;6.10;;
1026;SDS011;502;48.746;9.214;2022-09-11T15:00:37;6.50;;;5.90;;
1026;SDS011;502;48.746;9.214;2022-09-11T15:03:05;5.83;;;5.33;;
1026;SDS011;502;48.746;9.214;2022-09-11T15:05:31;6.83;;;6.23;;
1026;SDS011;502;48.746;9.214;2022-09-11T15:07:58;6.67;;;6.17;;
1026;SDS011;502;48.746;9.214;2022-09-11T15:10:25;6.90;;;6.30;;
1026;SDS011;502;48.746;9.214;2022-09-11T15:12:53;6.27;;;5.70;;
1026;SDS011;502;48.746;9.214;2022-09-11T15:15:24;6.67;;;6.07;;
1026;SDS011;502;48.746;9.214;2022-09-11T15:17:51;6.60;;;6.00;;
1026;SDS011;502;48.746;9.214;2022-09-11T15:20:18;6.70;;;6.10;;
1026;SDS011;502;48.746;9.214;2022-09-11T15:22:45;7.17;;;6.57;;
1026;SDS011;502;48.746;9.214;2022-09-11T15:25:12;7.17;;;6.47;;
1026;SDS011;502;48.746;9.214;2022-09-11T15:27:39;7.80;;;7.07;;
1026;SDS011;502;48.746;9.214;2022-09-11T15:30:08;6.80;;;6.20;;
1026;SDS011;502;48.746;9.214;2022-09-11T15:32:36;6.20;;;5.70;;
1026;SDS011;502;48.746;9.214;2022-09-11T15:35:03;6.20;;;5.70;;
1026;SDS011;502;48.746;9.214;2022-09-11T15:37:30;6.53;;;5.93;;
1026;SDS011;502;48.746;9.214;2022-09-11T15:39:56;6.23;;;5.63;;
1026;SDS011;502;48.746;9.214;2022-09-11T15:42:25;8.13;;;7.43;;
1026;SDS011;502;48.746;9.214;2022-09-11T15:44:51;7.20;;;6.60;;
1026;SDS011;502;48.746;9.214;2022-09-11T15:47:19;6.83;;;6.30;;
1026;SDS011;502;48.746;9.214;2022-09-11T15:49:46;6.50;;;5.90;;
1026;SDS011;502;48.746;9.214;2022-09-11T15:52:13;6.40;;;5.80;;
1026;SDS011;502;48.746;9.214;2022-09-11T15:54:39;6.17;;;5.57;;
1026;SDS011;502;48.746;9.214;2022-09-11T15:57:06;7.40;;;6.30;;
1026;SDS011;502;48.746;9.214;2022-09-11T15:59:33;6.73;;;6.13;;
1026;SDS011;502;48.746;9.214;2022-09-11T16:02:00;7.00;;;6.33;;
1026;SDS011;502;48.746;9.214;2022-09-11T16:04:28;5.60;;;5.10;;
1026;SDS011;502;48.746;9.214;2022-09-11T16:06:56;6.40;;;5.80;;
1026;SDS011;502;48.746;9.214;2022-09-11T16:09:24;6.80;;;6.20;;
1026;SDS011;502;48.746;9.214;2022-09-11T16:11:52;6.60;;;6.00;;